createdAt,value
2022-11-29T00:01:19.417Z,6.45
2022-11-29T00:03:46.528Z,6.43
2022-11-29T00:06:21.861Z,6.45
2022-11-29T00:08:49.427Z,6.55
2022-11-29T00:11:37.482Z,6.41
2022-11-29T00:14:05.131Z,6.41
2022-11-29T00:16:31.767Z,6.64
2022-11-29T00:18:58.511Z,6.52
2022-11-29T00:21:25.678Z,6.45
2022-11-29T00:23:52.444Z,6.38
2022-11-29T00:26:19.187Z,6.49
2022-11-29T00:28:46.047Z,6.38
2022-11-29T00:31:32.705Z,6.43
2022-11-29T00:34:01.007Z,6.33
2022-11-29T00:36:28.046Z,6.23
2022-11-29T00:38:54.809Z,6.33
2022-11-29T00:41:21.591Z,6.45
2022-11-29T00:43:48.535Z,6.44
2022-11-29T00:46:15.324Z,6.43
2022-11-29T00:48:42.085Z,6.46
2022-11-29T00:51:09.085Z,6.04
2022-11-29T00:53:36.773Z,6.48
2022-11-29T00:56:04.262Z,6.25
2022-11-29T00:58:32.399Z,6.07
2022-11-29T01:00:59.202Z,6.03
2022-11-29T01:03:25.885Z,6.11
2022-11-29T01:05:52.814Z,6.01
2022-11-29T01:08:19.685Z,6.09
2022-11-29T01:10:46.454Z,6.11
2022-11-29T01:13:13.127Z,6.43
2022-11-29T01:15:39.874Z,6.14
2022-11-29T01:18:06.763Z,6.17
2022-11-29T01:20:33.369Z,6.19
2022-11-29T01:23:00.024Z,6.25
2022-11-29T01:25:26.778Z,6.21
2022-11-29T01:27:54.503Z,6.28
2022-11-29T01:30:21.526Z,6.22
2022-11-29T01:32:48.309Z,6.15
2022-11-29T01:35:14.943Z,6.08
2022-11-29T01:37:41.657Z,5.90
2022-11-29T01:40:08.805Z,5.87
2022-11-29T01:42:35.429Z,5.80
2022-11-29T01:45:14.076Z,5.85
2022-11-29T01:47:45.246Z,5.90
2022-11-29T01:50:12.081Z,5.92
2022-11-29T01:52:39.658Z,5.96
2022-11-29T01:55:09.870Z,5.97
2022-11-29T01:57:41.211Z,6.01
2022-11-29T02:00:17.254Z,6.07
2022-11-29T02:02:54.029Z,6.10
2022-11-29T02:05:21.745Z,5.96
2022-11-29T02:07:52.018Z,6.01
2022-11-29T02:10:22.819Z,6.22
2022-11-29T02:12:52.569Z,6.21
2022-11-29T02:15:31.078Z,6.23
2022-11-29T02:18:12.175Z,6.17
2022-11-29T02:21:09.808Z,6.19
2022-11-29T02:23:51.591Z,6.26
2022-11-29T02:26:33.189Z,6.17
2022-11-29T02:29:27.524Z,6.25
2022-11-29T02:32:15.103Z,6.15
2022-11-29T02:35:22.547Z,6.09
2022-11-29T02:38:23.630Z,5.96
2022-11-29T02:40:56.261Z,5.93
2022-11-29T02:44:00.147Z,5.65
2022-11-29T02:46:59.456Z,5.55
2022-11-29T02:49:41.727Z,5.56
2022-11-29T02:52:17.151Z,5.75
2022-11-29T02:55:05.338Z,5.77
2022-11-29T02:57:58.390Z,5.61
2022-11-29T03:00:25.841Z,5.80
2022-11-29T03:02:55.994Z,5.69
2022-11-29T03:05:45.017Z,5.59
2022-11-29T03:08:35.463Z,5.45
2022-11-29T03:11:27.851Z,5.44
2022-11-29T03:14:03.281Z,5.60
2022-11-29T03:17:00.391Z,5.70
2022-11-29T03:20:14.802Z,5.86
2022-11-29T03:22:52.196Z,5.82
2022-11-29T03:25:33.007Z,5.78
2022-11-29T03:28:06.511Z,5.93
2022-11-29T03:30:37.096Z,5.99
2022-11-29T03:33:09.772Z,5.98
2022-11-29T03:36:30.095Z,5.99
2022-11-29T03:39:03.076Z,5.94
2022-11-29T03:41:43.684Z,5.95
2022-11-29T03:44:18.537Z,5.96
2022-11-29T03:46:50.903Z,5.99
2022-11-29T03:49:26.767Z,6.06
2022-11-29T03:52:19.665Z,6.04
2022-11-29T03:55:10.638Z,6.12
2022-11-29T03:57:57.518Z,6.07
2022-11-29T04:00:24.675Z,5.92
2022-11-29T04:03:03.815Z,6.23
2022-11-29T04:05:55.845Z,6.12
2022-11-29T04:09:00.027Z,6.08
2022-11-29T04:12:03.815Z,6.00
2022-11-29T04:14:45.801Z,6.06
2022-11-29T04:17:42.697Z,6.21
2022-11-29T04:20:45.438Z,5.77
2022-11-29T04:23:41.559Z,5.90
2022-11-29T04:26:23.362Z,5.67
2022-11-29T04:29:12.030Z,5.59
2022-11-29T04:31:57.529Z,5.74
2022-11-29T04:35:01.806Z,5.53
2022-11-29T04:37:49.879Z,5.49
2022-11-29T04:40:47.610Z,5.45
2022-11-29T04:43:52.611Z,5.42
2022-11-29T04:46:48.631Z,5.49
2022-11-29T04:49:29.093Z,5.48
2022-11-29T04:52:11.103Z,5.40
2022-11-29T04:55:15.825Z,5.27
2022-11-29T04:58:32.222Z,5.32
2022-11-29T05:01:28.023Z,5.35
2022-11-29T05:04:02.739Z,5.45
2022-11-29T05:06:53.904Z,5.65
2022-11-29T05:09:39.213Z,5.73
2022-11-29T05:12:21.000Z,5.82
2022-11-29T05:15:16.895Z,5.73
2022-11-29T05:18:00.208Z,5.81
2022-11-29T05:20:55.930Z,5.91
2022-11-29T05:23:59.324Z,5.75
2022-11-29T05:26:29.202Z,5.75
2022-11-29T05:29:14.157Z,5.87
2022-11-29T05:32:11.472Z,5.64
2022-11-29T05:35:08.992Z,5.81
2022-11-29T05:37:35.798Z,5.84
2022-11-29T05:40:20.321Z,5.65
2022-11-29T05:43:04.297Z,5.74
2022-11-29T05:45:43.038Z,5.65
2022-11-29T05:48:09.672Z,5.50
2022-11-29T05:50:48.687Z,5.55
2022-11-29T05:53:24.623Z,5.58
2022-11-29T05:56:35.915Z,5.32
2022-11-29T05:59:13.696Z,5.44
2022-11-29T06:02:33.116Z,5.49
2022-11-29T06:05:17.881Z,5.65
2022-11-29T06:08:08.874Z,5.55
2022-11-29T06:10:40.254Z,5.60
2022-11-29T06:13:38.405Z,5.62
2022-11-29T06:16:18.209Z,5.66
2022-11-29T06:19:33.196Z,5.75
2022-11-29T06:22:21.439Z,5.69
2022-11-29T06:25:06.970Z,5.89
2022-11-29T06:28:18.166Z,5.78
2022-11-29T06:31:15.885Z,5.86
2022-11-29T06:34:00.940Z,5.97
2022-11-29T06:36:36.597Z,6.18
2022-11-29T06:39:03.984Z,6.18
2022-11-29T06:41:30.948Z,6.09
2022-11-29T06:43:57.768Z,6.17
2022-11-29T06:46:30.448Z,6.45
2022-11-29T06:49:04.960Z,6.36
2022-11-29T06:52:07.238Z,6.39
2022-11-29T06:54:36.787Z,6.51
2022-11-29T06:57:15.014Z,6.23
2022-11-29T06:59:55.114Z,6.22
2022-11-29T07:02:51.184Z,6.26
2022-11-29T07:05:33.701Z,6.24
2022-11-29T07:08:17.363Z,6.17
2022-11-29T07:10:45.400Z,6.19
2022-11-29T07:13:15.367Z,6.22
2022-11-29T07:16:05.026Z,6.15
2022-11-29T07:18:38.797Z,6.13
2022-11-29T07:21:40.076Z,6.09
2022-11-29T07:24:34.182Z,6.19
2022-11-29T07:27:00.771Z,6.18
2022-11-29T07:29:47.251Z,6.16
2022-11-29T07:32:29.959Z,6.18
2022-11-29T07:35:14.344Z,6.13
2022-11-29T07:37:43.820Z,6.13
2022-11-29T07:40:21.056Z,6.02
2022-11-29T07:42:53.501Z,6.14
2022-11-29T07:45:23.967Z,6.22
2022-11-29T07:47:51.646Z,6.20
2022-11-29T07:50:18.991Z,6.20
2022-11-29T07:52:46.688Z,6.23
2022-11-29T07:55:26.043Z,6.30
2022-11-29T07:57:53.201Z,6.32
2022-11-29T08:00:20.314Z,6.31
2022-11-29T08:02:47.927Z,6.46
2022-11-29T08:05:14.674Z,6.27
2022-11-29T08:07:42.226Z,6.44
2022-11-29T08:10:12.350Z,6.45
2022-11-29T08:12:47.442Z,6.50
2022-11-29T08:15:14.719Z,6.47
2022-11-29T08:17:41.538Z,6.59
2022-11-29T08:20:10.775Z,6.70
2022-11-29T08:22:38.106Z,6.83
2022-11-29T08:25:06.238Z,6.90
2022-11-29T08:27:33.682Z,6.89
2022-11-29T08:30:00.429Z,6.95
2022-11-29T08:32:27.992Z,7.03
2022-11-29T08:34:54.627Z,6.94
2022-11-29T08:37:21.437Z,6.90
2022-11-29T08:39:48.131Z,6.78
2022-11-29T08:42:14.783Z,6.90
2022-11-29T08:44:41.490Z,6.92
2022-11-29T08:47:28.304Z,6.93
2022-11-29T08:50:04.260Z,7.00
2022-11-29T08:52:52.318Z,7.00
2022-11-29T08:55:20.640Z,6.84
2022-11-29T08:57:48.296Z,6.96
2022-11-29T09:00:15.827Z,6.85
2022-11-29T09:02:42.595Z,6.80
2022-11-29T09:05:10.809Z,6.75
2022-11-29T09:07:37.912Z,6.71
2022-11-29T09:10:08.350Z,6.71
2022-11-29T09:12:37.107Z,6.94
2022-11-29T09:15:06.270Z,6.96
2022-11-29T09:17:33.751Z,6.87
2022-11-29T09:20:00.532Z,6.75
2022-11-29T09:22:27.343Z,6.84
2022-11-29T09:24:54.392Z,6.92
2022-11-29T09:27:21.047Z,6.77
2022-11-29T09:29:47.726Z,6.85
2022-11-29T09:32:14.428Z,6.89
2022-11-29T09:34:42.394Z,6.75
2022-11-29T09:37:09.180Z,6.78
2022-11-29T09:39:35.954Z,7.16
2022-11-29T09:42:11.991Z,6.95
2022-11-29T09:44:45.003Z,7.00
2022-11-29T09:47:14.918Z,6.87
2022-11-29T09:50:00.277Z,6.99
2022-11-29T09:53:09.254Z,7.05
2022-11-29T09:55:51.060Z,7.05
2022-11-29T09:58:26.232Z,6.85
2022-11-29T10:01:06.966Z,6.82
2022-11-29T10:03:45.309Z,6.83
2022-11-29T10:06:17.023Z,6.67
2022-11-29T10:08:51.640Z,6.80
2022-11-29T10:11:25.257Z,6.72
2022-11-29T10:14:18.012Z,6.55
2022-11-29T10:17:35.634Z,6.75
2022-11-29T10:20:37.841Z,6.74
2022-11-29T10:23:44.994Z,6.79
2022-11-29T10:26:12.885Z,6.83
2022-11-29T10:28:47.568Z,6.84
2022-11-29T10:31:35.072Z,6.90
2022-11-29T10:34:11.335Z,6.96
2022-11-29T10:37:04.109Z,7.03
2022-11-29T10:39:46.529Z,6.93
2022-11-29T10:42:37.751Z,6.98
2022-11-29T10:45:11.879Z,6.99
2022-11-29T10:47:38.704Z,7.10
2022-11-29T10:50:06.143Z,7.21
2022-11-29T10:52:33.957Z,7.09
2022-11-29T10:55:01.924Z,7.34
2022-11-29T10:57:28.774Z,7.49
2022-11-29T11:00:09.871Z,7.55
2022-11-29T11:02:37.121Z,7.45
2022-11-29T11:05:13.125Z,7.65
2022-11-29T11:07:39.871Z,7.55
2022-11-29T11:10:28.742Z,7.61
2022-11-29T11:13:04.077Z,7.74
2022-11-29T11:15:32.254Z,7.56
2022-11-29T11:18:05.574Z,7.65
2022-11-29T11:20:40.125Z,7.65
2022-11-29T11:23:27.326Z,7.55
2022-11-29T11:26:14.817Z,7.48
2022-11-29T11:28:55.500Z,7.51
2022-11-29T11:31:40.459Z,7.37
2022-11-29T11:34:29.158Z,7.38
2022-11-29T11:37:14.616Z,7.64
2022-11-29T11:39:43.078Z,7.76
2022-11-29T11:42:35.092Z,7.77
2022-11-29T11:45:04.487Z,7.31
2022-11-29T11:47:35.995Z,7.28
2022-11-29T11:50:02.597Z,7.23
2022-11-29T11:52:35.889Z,7.13
2022-11-29T11:55:23.337Z,7.10
2022-11-29T11:58:09.952Z,7.02
2022-11-29T12:01:03.374Z,7.02
2022-11-29T12:03:52.834Z,6.95
2022-11-29T12:06:38.370Z,6.90
2022-11-29T12:09:18.635Z,6.87
2022-11-29T12:11:51.479Z,6.73
2022-11-29T12:14:28.678Z,6.74
2022-11-29T12:17:08.165Z,6.79
2022-11-29T12:19:46.971Z,6.71
2022-11-29T12:22:18.991Z,6.67
2022-11-29T12:24:55.924Z,6.71
2022-11-29T12:27:22.780Z,6.75
2022-11-29T12:29:49.477Z,6.72
2022-11-29T12:32:27.378Z,6.67
2022-11-29T12:35:39.084Z,6.70
2022-11-29T12:39:03.347Z,6.68
2022-11-29T12:41:29.974Z,6.68
2022-11-29T12:44:17.763Z,6.74
2022-11-29T12:46:57.968Z,6.71
2022-11-29T12:50:10.779Z,6.70
2022-11-29T12:53:09.372Z,6.76
2022-11-29T12:55:49.708Z,6.68
2022-11-29T12:58:34.740Z,6.67
2022-11-29T13:01:23.463Z,6.60
2022-11-29T13:04:11.472Z,6.48
2022-11-29T13:07:26.549Z,6.52
2022-11-29T13:10:21.189Z,6.51
2022-11-29T13:12:59.759Z,6.53
2022-11-29T13:15:41.162Z,6.55
2022-11-29T13:18:20.553Z,6.55
2022-11-29T13:21:16.677Z,6.56
2022-11-29T13:24:10.084Z,6.51
2022-11-29T13:26:39.294Z,6.48
2022-11-29T13:29:07.611Z,6.55
2022-11-29T13:31:34.604Z,6.57
2022-11-29T13:34:13.402Z,6.61
2022-11-29T13:36:46.871Z,6.62
2022-11-29T13:39:35.337Z,6.64
2022-11-29T13:42:27.937Z,6.65
2022-11-29T13:45:15.757Z,6.59
2022-11-29T13:47:51.081Z,6.59
2022-11-29T13:50:44.920Z,6.60
2022-11-29T13:53:21.800Z,6.60
2022-11-29T13:56:01.425Z,6.52
2022-11-29T13:58:28.059Z,6.64
2022-11-29T14:01:11.495Z,6.67
2022-11-29T14:03:49.057Z,6.61
2022-11-29T14:06:40.821Z,6.65
2022-11-29T14:09:31.040Z,6.67
2022-11-29T14:12:06.005Z,6.64
2022-11-29T14:14:40.062Z,6.71
2022-11-29T14:17:27.078Z,6.73
2022-11-29T14:20:22.553Z,6.81
2022-11-29T14:23:04.540Z,6.82
2022-11-29T14:25:50.999Z,6.80
2022-11-29T14:28:18.502Z,6.81
2022-11-29T14:30:45.077Z,6.90
2022-11-29T14:33:30.183Z,6.82
2022-11-29T14:36:15.066Z,6.91
2022-11-29T14:39:13.390Z,6.84
2022-11-29T14:42:14.361Z,6.83
2022-11-29T14:44:53.327Z,6.86
2022-11-29T14:47:25.684Z,6.80
2022-11-29T14:49:54.826Z,6.77
2022-11-29T14:52:27.758Z,6.76
2022-11-29T14:54:59.962Z,6.77
2022-11-29T14:57:48.414Z,6.79
2022-11-29T15:00:30.133Z,6.75
2022-11-29T15:03:01.848Z,6.79
2022-11-29T15:05:38.609Z,6.83
2022-11-29T15:08:27.096Z,6.90
2022-11-29T15:10:59.427Z,6.88
2022-11-29T15:13:35.665Z,6.88
2022-11-29T15:16:23.507Z,6.89
2022-11-29T15:19:24.125Z,6.95
2022-11-29T15:22:08.331Z,6.94
2022-11-29T15:25:09.961Z,7.01
2022-11-29T15:27:40.183Z,7.05
2022-11-29T15:30:26.518Z,6.91
2022-11-29T15:32:53.403Z,6.91
2022-11-29T15:35:20.770Z,6.90
2022-11-29T15:37:49.972Z,6.86
2022-11-29T15:40:18.537Z,6.93
2022-11-29T15:43:14.490Z,6.87
2022-11-29T15:45:50.006Z,6.87
2022-11-29T15:48:18.060Z,6.85
2022-11-29T15:51:05.126Z,6.94
2022-11-29T16:48:32.289Z,6.63
2022-11-29T16:51:28.712Z,6.69
2022-11-29T16:54:43.569Z,6.60
